sensor_id;sensor_type;location;lat;lon;timestamp;temperature;humidity
17715;DHT22;8977;50.902;4.314;2023-04-03T00:01:36;9.00;99.90
17715;DHT22;8977;50.902;4.314;2023-04-03T00:04:03;8.90;99.90
17715;DHT22;8977;50.902;4.314;2023-04-03T00:06:30;8.90;99.90
17715;DHT22;8977;50.902;4.314;2023-04-03T00:08:59;8.90;99.90
17715;DHT22;8977;50.902;4.314;2023-04-03T00:11:26;8.90;99.90
17715;DHT22;8977;50.902;4.314;2023-04-03T00:13:53;8.90;99.90
17715;DHT22;8977;50.902;4.314;2023-04-03T00:16:20;8.90;99.90
17715;DHT22;8977;50.902;4.314;2023-04-03T00:18:47;8.90;99.90
17715;DHT22;8977;50.902;4.314;2023-04-03T00:21:14;8.90;99.90
17715;DHT22;8977;50.902;4.314;2023-04-03T00:23:41;8.90;99.90
17715;DHT22;8977;50.902;4.314;2023-04-03T00:26:09;8.90;99.90
17715;DHT22;8977;50.902;4.314;2023-04-03T00:28:36;8.90;99.90
17715;DHT22;8977;50.902;4.314;2023-04-03T00:31:03;8.90;99.90
17715;DHT22;8977;50.902;4.314;2023-04-03T00:33:30;8.90;99.90
17715;DHT22;8977;50.902;4.314;2023-04-03T00:35:57;8.90;99.90
17715;DHT22;8977;50.902;4.314;2023-04-03T00:38:23;8.80;99.90
17715;DHT22;8977;50.902;4.314;2023-04-03T00:40:50;8.80;99.90
17715;DHT22;8977;50.902;4.314;2023-04-03T00:43:21;8.80;99.90
17715;DHT22;8977;50.902;4.314;2023-04-03T00:45:49;8.80;99.90
17715;DHT22;8977;50.902;4.314;2023-04-03T00:48:18;8.70;99.90
17715;DHT22;8977;50.902;4.314;2023-04-03T00:50:47;8.70;99.90
17715;DHT22;8977;50.902;4.314;2023-04-03T00:53:19;8.70;99.90
17715;DHT22;8977;50.902;4.314;2023-04-03T00:55:48;8.70;99.90
17715;DHT22;8977;50.902;4.314;2023-04-03T00:58:19;8.70;99.90
17715;DHT22;8977;50.902;4.314;2023-04-03T01:00:50;8.70;99.90
17715;DHT22;8977;50.902;4.314;2023-04-03T01:03:21;8.60;99.90
17715;DHT22;8977;50.902;4.314;2023-04-03T01:05:48;8.60;99.90
17715;DHT22;8977;50.902;4.314;2023-04-03T01:08:15;8.70;99.90
17715;DHT22;8977;50.902;4.314;2023-04-03T01:10:43;8.60;99.90
17715;DHT22;8977;50.902;4.314;2023-04-03T01:13:27;8.60;99.90
17715;DHT22;8977;50.902;4.314;2023-04-03T01:15:55;8.60;99.90
17715;DHT22;8977;50.902;4.314;2023-04-03T01:18:22;8.60;99.90
17715;DHT22;8977;50.902;4.314;2023-04-03T01:21:09;8.60;99.90
17715;DHT22;8977;50.902;4.314;2023-04-03T01:24:00;8.60;99.90
17715;DHT22;8977;50.902;4.314;2023-04-03T01:26:31;8.60;99.90
17715;DHT22;8977;50.902;4.314;2023-04-03T01:29:00;8.60;99.90
17715;DHT22;8977;50.902;4.314;2023-04-03T01:31:31;8.60;99.90
17715;DHT22;8977;50.902;4.314;2023-04-03T01:33:59;8.50;99.90
17715;DHT22;8977;50.902;4.314;2023-04-03T01:36:28;8.50;99.90
17715;DHT22;8977;50.902;4.314;2023-04-03T01:38:56;8.50;99.90
17715;DHT22;8977;50.902;4.314;2023-04-03T01:41:23;8.50;99.90
17715;DHT22;8977;50.902;4.314;2023-04-03T01:43:51;8.50;99.90
17715;DHT22;8977;50.902;4.314;2023-04-03T01:46:19;8.50;99.90
17715;DHT22;8977;50.902;4.314;2023-04-03T01:48:46;8.50;99.90
17715;DHT22;8977;50.902;4.314;2023-04-03T01:51:14;8.50;99.90
17715;DHT22;8977;50.902;4.314;2023-04-03T01:53:41;8.50;99.90
17715;DHT22;8977;50.902;4.314;2023-04-03T01:56:08;8.50;99.90
17715;DHT22;8977;50.902;4.314;2023-04-03T01:58:35;8.50;99.90
17715;DHT22;8977;50.902;4.314;2023-04-03T02:01:02;8.60;99.90
17715;DHT22;8977;50.902;4.314;2023-04-03T02:03:29;8.60;99.90
17715;DHT22;8977;50.902;4.314;2023-04-03T02:05:56;8.60;99.90
17715;DHT22;8977;50.902;4.314;2023-04-03T02:08:25;8.60;99.90
17715;DHT22;8977;50.902;4.314;2023-04-03T02:10:52;8.60;99.90
17715;DHT22;8977;50.902;4.314;2023-04-03T02:13:19;8.60;99.90
17715;DHT22;8977;50.902;4.314;2023-04-03T02:15:46;8.60;99.90
17715;DHT22;8977;50.902;4.314;2023-04-03T02:18:13;8.70;99.90
17715;DHT22;8977;50.902;4.314;2023-04-03T02:20:40;8.60;99.90
17715;DHT22;8977;50.902;4.314;2023-04-03T02:23:07;8.60;99.90
17715;DHT22;8977;50.902;4.314;2023-04-03T02:25:35;8.60;99.90
17715;DHT22;8977;50.902;4.314;2023-04-03T02:28:02;8.60;99.90
17715;DHT22;8977;50.902;4.314;2023-04-03T02:30:29;8.60;99.90
17715;DHT22;8977;50.902;4.314;2023-04-03T02:32:55;8.60;99.90
17715;DHT22;8977;50.902;4.314;2023-04-03T02:35:22;8.50;99.90
17715;DHT22;8977;50.902;4.314;2023-04-03T02:37:49;8.60;99.90
17715;DHT22;8977;50.902;4.314;2023-04-03T02:40:16;8.50;99.90
17715;DHT22;8977;50.902;4.314;2023-04-03T02:42:44;8.50;99.90
17715;DHT22;8977;50.902;4.314;2023-04-03T02:45:11;8.50;99.90
17715;DHT22;8977;50.902;4.314;2023-04-03T02:47:38;8.40;99.90
17715;DHT22;8977;50.902;4.314;2023-04-03T02:50:05;8.40;99.90
17715;DHT22;8977;50.902;4.314;2023-04-03T02:52:32;8.40;99.90
17715;DHT22;8977;50.902;4.314;2023-04-03T02:54:59;8.40;99.90
17715;DHT22;8977;50.902;4.314;2023-04-03T02:57:26;8.40;99.90
17715;DHT22;8977;50.902;4.314;2023-04-03T02:59:54;8.50;99.90
17715;DHT22;8977;50.902;4.314;2023-04-03T03:02:21;8.50;99.90
17715;DHT22;8977;50.902;4.314;2023-04-03T03:04:47;8.50;99.90
17715;DHT22;8977;50.902;4.314;2023-04-03T03:07:15;8.40;99.90
17715;DHT22;8977;50.902;4.314;2023-04-03T03:09:41;8.40;99.90
17715;DHT22;8977;50.902;4.314;2023-04-03T03:12:08;8.40;99.90
17715;DHT22;8977;50.902;4.314;2023-04-03T03:14:35;8.40;99.90
17715;DHT22;8977;50.902;4.314;2023-04-03T03:17:03;8.40;99.90
17715;DHT22;8977;50.902;4.314;2023-04-03T03:19:30;8.30;99.90
17715;DHT22;8977;50.902;4.314;2023-04-03T03:21:57;8.30;99.90
17715;DHT22;8977;50.902;4.314;2023-04-03T03:24:24;8.30;99.90
17715;DHT22;8977;50.902;4.314;2023-04-03T03:26:51;8.30;99.90
17715;DHT22;8977;50.902;4.314;2023-04-03T03:29:17;8.20;99.90
17715;DHT22;8977;50.902;4.314;2023-04-03T03:31:44;8.20;99.90
17715;DHT22;8977;50.902;4.314;2023-04-03T03:34:13;8.20;99.90
17715;DHT22;8977;50.902;4.314;2023-04-03T03:36:40;8.20;99.90
17715;DHT22;8977;50.902;4.314;2023-04-03T03:39:07;8.10;99.90
17715;DHT22;8977;50.902;4.314;2023-04-03T03:41:34;8.20;99.90
17715;DHT22;8977;50.902;4.314;2023-04-03T03:44:01;8.10;99.90
17715;DHT22;8977;50.902;4.314;2023-04-03T03:46:27;8.20;99.90
17715;DHT22;8977;50.902;4.314;2023-04-03T03:48:54;8.10;99.90
17715;DHT22;8977;50.902;4.314;2023-04-03T03:51:22;8.10;99.90
17715;DHT22;8977;50.902;4.314;2023-04-03T03:53:49;8.10;99.90
17715;DHT22;8977;50.902;4.314;2023-04-03T03:56:16;8.00;99.90
17715;DHT22;8977;50.902;4.314;2023-04-03T03:58:43;8.00;99.90
17715;DHT22;8977;50.902;4.314;2023-04-03T04:01:10;8.00;99.90
17715;DHT22;8977;50.902;4.314;2023-04-03T04:03:37;8.00;99.90
17715;DHT22;8977;50.902;4.314;2023-04-03T04:06:03;8.00;99.90
17715;DHT22;8977;50.902;4.314;2023-04-03T04:08:32;7.90;99.90
17715;DHT22;8977;50.902;4.314;2023-04-03T04:10:59;7.90;99.90
17715;DHT22;8977;50.902;4.314;2023-04-03T04:13:25;7.90;99.90
17715;DHT22;8977;50.902;4.314;2023-04-03T04:15:52;7.90;99.90
17715;DHT22;8977;50.902;4.314;2023-04-03T04:18:19;7.90;99.90
17715;DHT22;8977;50.902;4.314;2023-04-03T04:20:48;7.90;99.90
17715;DHT22;8977;50.902;4.314;2023-04-03T04:23:15;7.90;99.90
17715;DHT22;8977;50.902;4.314;2023-04-03T04:25:45;7.90;99.90
17715;DHT22;8977;50.902;4.314;2023-04-03T04:28:12;7.90;99.90
17715;DHT22;8977;50.902;4.314;2023-04-03T04:30:39;7.90;99.90
17715;DHT22;8977;50.902;4.314;2023-04-03T04:33:06;7.90;99.90
17715;DHT22;8977;50.902;4.314;2023-04-03T04:35:33;7.90;99.90
17715;DHT22;8977;50.902;4.314;2023-04-03T04:38:00;7.80;99.90
17715;DHT22;8977;50.902;4.314;2023-04-03T04:40:28;7.80;99.90
17715;DHT22;8977;50.902;4.314;2023-04-03T04:42:56;7.90;99.90
17715;DHT22;8977;50.902;4.314;2023-04-03T04:45:23;7.80;99.90
17715;DHT22;8977;50.902;4.314;2023-04-03T04:47:50;7.80;99.90
17715;DHT22;8977;50.902;4.314;2023-04-03T04:50:18;7.80;99.90
17715;DHT22;8977;50.902;4.314;2023-04-03T04:52:45;7.80;99.90
17715;DHT22;8977;50.902;4.314;2023-04-03T04:55:12;7.70;99.90
17715;DHT22;8977;50.902;4.314;2023-04-03T04:57:38;7.80;99.90
17715;DHT22;8977;50.902;4.314;2023-04-03T05:00:08;7.70;99.90
17715;DHT22;8977;50.902;4.314;2023-04-03T05:02:35;7.70;99.90
17715;DHT22;8977;50.902;4.314;2023-04-03T05:05:02;7.70;99.90
17715;DHT22;8977;50.902;4.314;2023-04-03T05:07:29;7.80;99.90
17715;DHT22;8977;50.902;4.314;2023-04-03T05:09:56;7.80;99.90
17715;DHT22;8977;50.902;4.314;2023-04-03T05:12:23;7.70;99.90
17715;DHT22;8977;50.902;4.314;2023-04-03T05:14:50;7.80;99.90
17715;DHT22;8977;50.902;4.314;2023-04-03T05:17:18;7.70;99.90
17715;DHT22;8977;50.902;4.314;2023-04-03T05:19:45;7.80;99.90
17715;DHT22;8977;50.902;4.314;2023-04-03T05:22:12;7.80;99.90
17715;DHT22;8977;50.902;4.314;2023-04-03T05:24:39;7.70;99.90
17715;DHT22;8977;50.902;4.314;2023-04-03T05:27:05;7.70;99.90
17715;DHT22;8977;50.902;4.314;2023-04-03T05:29:32;7.70;99.90
17715;DHT22;8977;50.902;4.314;2023-04-03T05:31:59;7.70;99.90
17715;DHT22;8977;50.902;4.314;2023-04-03T05:34:27;7.70;99.90
17715;DHT22;8977;50.902;4.314;2023-04-03T05:36:54;7.70;99.90
17715;DHT22;8977;50.902;4.314;2023-04-03T05:39:21;7.70;99.90
17715;DHT22;8977;50.902;4.314;2023-04-03T05:41:49;7.70;99.90
17715;DHT22;8977;50.902;4.314;2023-04-03T05:44:16;7.70;99.90
17715;DHT22;8977;50.902;4.314;2023-04-03T05:46:43;7.70;99.90
17715;DHT22;8977;50.902;4.314;2023-04-03T05:49:11;7.70;99.90
17715;DHT22;8977;50.902;4.314;2023-04-03T05:51:39;7.80;99.90
17715;DHT22;8977;50.902;4.314;2023-04-03T05:54:12;7.80;99.90
17715;DHT22;8977;50.902;4.314;2023-04-03T05:56:40;7.80;99.90
17715;DHT22;8977;50.902;4.314;2023-04-03T05:59:07;7.80;99.90
17715;DHT22;8977;50.902;4.314;2023-04-03T06:01:33;7.80;99.90
17715;DHT22;8977;50.902;4.314;2023-04-03T06:04:00;7.80;99.90
17715;DHT22;8977;50.902;4.314;2023-04-03T06:06:45;7.80;99.90
17715;DHT22;8977;50.902;4.314;2023-04-03T06:09:12;7.80;99.90
17715;DHT22;8977;50.902;4.314;2023-04-03T06:11:39;7.80;99.90
17715;DHT22;8977;50.902;4.314;2023-04-03T06:14:07;7.80;99.90
17715;DHT22;8977;50.902;4.314;2023-04-03T06:16:34;7.80;99.90
17715;DHT22;8977;50.902;4.314;2023-04-03T06:19:01;7.80;99.90
17715;DHT22;8977;50.902;4.314;2023-04-03T06:21:28;7.90;99.90
17715;DHT22;8977;50.902;4.314;2023-04-03T06:23:57;7.90;99.90
17715;DHT22;8977;50.902;4.314;2023-04-03T06:26:24;7.90;99.90
17715;DHT22;8977;50.902;4.314;2023-04-03T06:28:50;7.90;99.90
17715;DHT22;8977;50.902;4.314;2023-04-03T06:31:17;7.90;99.90
17715;DHT22;8977;50.902;4.314;2023-04-03T06:33:44;8.00;99.90
17715;DHT22;8977;50.902;4.314;2023-04-03T06:36:12;8.00;99.90
17715;DHT22;8977;50.902;4.314;2023-04-03T06:38:39;8.00;99.90
17715;DHT22;8977;50.902;4.314;2023-04-03T06:41:07;8.00;99.90
17715;DHT22;8977;50.902;4.314;2023-04-03T06:43:34;8.10;99.90
17715;DHT22;8977;50.902;4.314;2023-04-03T06:46:01;8.10;99.90
17715;DHT22;8977;50.902;4.314;2023-04-03T06:48:28;8.10;99.90
17715;DHT22;8977;50.902;4.314;2023-04-03T06:50:55;8.20;99.90
17715;DHT22;8977;50.902;4.314;2023-04-03T06:53:22;8.20;99.90
17715;DHT22;8977;50.902;4.314;2023-04-03T06:55:49;8.20;99.90
17715;DHT22;8977;50.902;4.314;2023-04-03T06:58:17;8.30;99.90
17715;DHT22;8977;50.902;4.314;2023-04-03T07:00:44;8.30;99.90
17715;DHT22;8977;50.902;4.314;2023-04-03T07:03:12;8.30;99.90
17715;DHT22;8977;50.902;4.314;2023-04-03T07:05:39;8.40;99.90
17715;DHT22;8977;50.902;4.314;2023-04-03T07:08:08;8.40;99.90
17715;DHT22;8977;50.902;4.314;2023-04-03T07:10:34;8.40;99.90
17715;DHT22;8977;50.902;4.314;2023-04-03T07:13:01;8.50;99.90
17715;DHT22;8977;50.902;4.314;2023-04-03T07:15:30;8.60;99.90
17715;DHT22;8977;50.902;4.314;2023-04-03T07:17:57;8.60;99.90
17715;DHT22;8977;50.902;4.314;2023-04-03T07:20:23;8.60;99.90
17715;DHT22;8977;50.902;4.314;2023-04-03T07:22:50;8.60;99.90
17715;DHT22;8977;50.902;4.314;2023-04-03T07:25:17;8.60;99.90
17715;DHT22;8977;50.902;4.314;2023-04-03T07:27:44;8.70;99.90
17715;DHT22;8977;50.902;4.314;2023-04-03T07:30:12;8.70;99.90
17715;DHT22;8977;50.902;4.314;2023-04-03T07:32:41;8.80;99.90
17715;DHT22;8977;50.902;4.314;2023-04-03T07:35:08;8.90;99.90
17715;DHT22;8977;50.902;4.314;2023-04-03T07:37:34;8.80;99.90
17715;DHT22;8977;50.902;4.314;2023-04-03T07:40:02;8.90;99.90
17715;DHT22;8977;50.902;4.314;2023-04-03T07:42:29;8.90;99.90
17715;DHT22;8977;50.902;4.314;2023-04-03T07:44:57;8.90;99.90
17715;DHT22;8977;50.902;4.314;2023-04-03T07:47:23;8.90;99.90
17715;DHT22;8977;50.902;4.314;2023-04-03T07:49:52;8.90;99.90
17715;DHT22;8977;50.902;4.314;2023-04-03T07:52:19;9.00;99.90
17715;DHT22;8977;50.902;4.314;2023-04-03T07:54:45;9.00;99.90
17715;DHT22;8977;50.902;4.314;2023-04-03T07:57:12;9.00;99.90
17715;DHT22;8977;50.902;4.314;2023-04-03T07:59:39;8.90;99.90
17715;DHT22;8977;50.902;4.314;2023-04-03T08:02:08;8.90;99.90
17715;DHT22;8977;50.902;4.314;2023-04-03T08:04:35;9.00;99.90
17715;DHT22;8977;50.902;4.314;2023-04-03T08:07:04;9.10;99.90
17715;DHT22;8977;50.902;4.314;2023-04-03T08:09:31;9.20;99.90
17715;DHT22;8977;50.902;4.314;2023-04-03T08:11:58;9.20;99.90
17715;DHT22;8977;50.902;4.314;2023-04-03T08:14:25;9.30;99.90
17715;DHT22;8977;50.902;4.314;2023-04-03T08:16:53;9.40;99.90
17715;DHT22;8977;50.902;4.314;2023-04-03T08:19:19;9.40;99.90
17715;DHT22;8977;50.902;4.314;2023-04-03T08:21:46;9.40;99.90
17715;DHT22;8977;50.902;4.314;2023-04-03T08:24:14;9.40;99.90
17715;DHT22;8977;50.902;4.314;2023-04-03T08:26:41;9.50;99.90
17715;DHT22;8977;50.902;4.314;2023-04-03T08:29:08;9.50;99.90
17715;DHT22;8977;50.902;4.314;2023-04-03T08:31:35;9.60;99.90
17715;DHT22;8977;50.902;4.314;2023-04-03T08:34:02;9.60;99.90
17715;DHT22;8977;50.902;4.314;2023-04-03T08:36:29;9.60;99.90
17715;DHT22;8977;50.902;4.314;2023-04-03T08:38:56;9.70;99.90
17715;DHT22;8977;50.902;4.314;2023-04-03T08:41:29;9.80;99.90
17715;DHT22;8977;50.902;4.314;2023-04-03T08:44:02;9.80;99.90
17715;DHT22;8977;50.902;4.314;2023-04-03T08:46:40;9.90;99.90
17715;DHT22;8977;50.902;4.314;2023-04-03T08:49:15;10.00;99.90
17715;DHT22;8977;50.902;4.314;2023-04-03T08:51:47;9.90;99.90
17715;DHT22;8977;50.902;4.314;2023-04-03T08:54:23;10.00;99.90
17715;DHT22;8977;50.902;4.314;2023-04-03T08:56:53;10.10;99.90
17715;DHT22;8977;50.902;4.314;2023-04-03T08:59:26;10.10;99.90
17715;DHT22;8977;50.902;4.314;2023-04-03T09:01:54;10.10;99.90
17715;DHT22;8977;50.902;4.314;2023-04-03T09:04:22;10.20;99.90
17715;DHT22;8977;50.902;4.314;2023-04-03T09:06:52;10.30;99.90
17715;DHT22;8977;50.902;4.314;2023-04-03T09:09:30;10.30;99.90
17715;DHT22;8977;50.902;4.314;2023-04-03T09:12:06;10.30;99.90
17715;DHT22;8977;50.902;4.314;2023-04-03T09:14:42;10.40;99.90
17715;DHT22;8977;50.902;4.314;2023-04-03T09:17:15;10.50;99.90
17715;DHT22;8977;50.902;4.314;2023-04-03T09:19:51;10.50;99.90
17715;DHT22;8977;50.902;4.314;2023-04-03T09:22:24;10.60;99.90
17715;DHT22;8977;50.902;4.314;2023-04-03T09:24:57;10.60;99.90
17715;DHT22;8977;50.902;4.314;2023-04-03T09:27:27;10.60;99.90
17715;DHT22;8977;50.902;4.314;2023-04-03T09:29:55;10.70;99.90
17715;DHT22;8977;50.902;4.314;2023-04-03T09:32:27;10.70;99.90
17715;DHT22;8977;50.902;4.314;2023-04-03T09:34:57;10.80;99.90
17715;DHT22;8977;50.902;4.314;2023-04-03T09:37:38;10.80;99.90
17715;DHT22;8977;50.902;4.314;2023-04-03T09:40:27;10.90;99.90
17715;DHT22;8977;50.902;4.314;2023-04-03T09:42:56;10.90;99.90
17715;DHT22;8977;50.902;4.314;2023-04-03T09:45:27;10.90;99.90
17715;DHT22;8977;50.902;4.314;2023-04-03T09:48:13;11.00;99.90
17715;DHT22;8977;50.902;4.314;2023-04-03T09:50:57;11.10;99.90
17715;DHT22;8977;50.902;4.314;2023-04-03T09:53:33;11.10;99.90
17715;DHT22;8977;50.902;4.314;2023-04-03T09:56:04;11.20;99.90
17715;DHT22;8977;50.902;4.314;2023-04-03T09:58:35;11.30;99.90
17715;DHT22;8977;50.902;4.314;2023-04-03T10:01:04;11.30;99.90
17715;DHT22;8977;50.902;4.314;2023-04-03T10:03:33;11.30;99.90
17715;DHT22;8977;50.902;4.314;2023-04-03T10:06:01;11.30;99.90
17715;DHT22;8977;50.902;4.314;2023-04-03T10:08:30;11.40;99.90
17715;DHT22;8977;50.902;4.314;2023-04-03T10:11:12;11.50;99.90
17715;DHT22;8977;50.902;4.314;2023-04-03T10:13:55;11.50;99.90
17715;DHT22;8977;50.902;4.314;2023-04-03T10:16:27;11.50;99.90
17715;DHT22;8977;50.902;4.314;2023-04-03T10:19:10;11.60;99.90
17715;DHT22;8977;50.902;4.314;2023-04-03T10:21:44;11.60;99.90
17715;DHT22;8977;50.902;4.314;2023-04-03T10:24:17;11.70;99.90
17715;DHT22;8977;50.902;4.314;2023-04-03T10:26:52;11.60;99.90
17715;DHT22;8977;50.902;4.314;2023-04-03T10:29:31;11.60;99.90
17715;DHT22;8977;50.902;4.314;2023-04-03T10:32:07;11.70;99.90
17715;DHT22;8977;50.902;4.314;2023-04-03T10:34:37;11.80;99.90
17715;DHT22;8977;50.902;4.314;2023-04-03T10:37:13;11.80;99.90
17715;DHT22;8977;50.902;4.314;2023-04-03T10:39:49;11.80;99.90
17715;DHT22;8977;50.902;4.314;2023-04-03T10:42:27;11.90;99.90
17715;DHT22;8977;50.902;4.314;2023-04-03T10:45:15;11.90;99.90
17715;DHT22;8977;50.902;4.314;2023-04-03T10:47:51;12.00;99.90
17715;DHT22;8977;50.902;4.314;2023-04-03T10:50:31;12.00;99.90
17715;DHT22;8977;50.902;4.314;2023-04-03T10:53:07;12.10;99.90
17715;DHT22;8977;50.902;4.314;2023-04-03T10:55:39;12.10;99.90
17715;DHT22;8977;50.902;4.314;2023-04-03T10:58:14;12.10;99.90
17715;DHT22;8977;50.902;4.314;2023-04-03T11:00:48;12.20;99.90
17715;DHT22;8977;50.902;4.314;2023-04-03T11:03:21;12.20;99.90
17715;DHT22;8977;50.902;4.314;2023-04-03T11:05:52;12.20;99.90
17715;DHT22;8977;50.902;4.314;2023-04-03T11:08:25;12.30;99.90
17715;DHT22;8977;50.902;4.314;2023-04-03T11:10:56;12.30;99.90
17715;DHT22;8977;50.902;4.314;2023-04-03T11:13:28;12.30;99.90
17715;DHT22;8977;50.902;4.314;2023-04-03T11:15:58;12.40;99.90
17715;DHT22;8977;50.902;4.314;2023-04-03T11:18:28;12.40;99.90
17715;DHT22;8977;50.902;4.314;2023-04-03T11:21:02;12.40;99.90
17715;DHT22;8977;50.902;4.314;2023-04-03T11:23:32;12.50;99.90
17715;DHT22;8977;50.902;4.314;2023-04-03T11:26:11;12.50;99.90
17715;DHT22;8977;50.902;4.314;2023-04-03T11:28:39;12.50;99.70
17715;DHT22;8977;50.902;4.314;2023-04-03T11:31:22;12.50;99.90
17715;DHT22;8977;50.902;4.314;2023-04-03T11:34:02;12.60;99.90
17715;DHT22;8977;50.902;4.314;2023-04-03T11:36:34;12.60;99.90
17715;DHT22;8977;50.902;4.314;2023-04-03T11:39:15;12.50;99.90
17715;DHT22;8977;50.902;4.314;2023-04-03T11:41:44;12.60;99.90
17715;DHT22;8977;50.902;4.314;2023-04-03T11:44:29;12.60;99.90
17715;DHT22;8977;50.902;4.314;2023-04-03T11:46:59;12.70;99.40
17715;DHT22;8977;50.902;4.314;2023-04-03T11:49:56;12.70;99.30
17715;DHT22;8977;50.902;4.314;2023-04-03T11:52:55;12.70;99.00
17715;DHT22;8977;50.902;4.314;2023-04-03T11:55:45;12.70;98.70
17715;DHT22;8977;50.902;4.314;2023-04-03T11:58:14;12.80;98.70
17715;DHT22;8977;50.902;4.314;2023-04-03T12:01:05;12.80;98.90
17715;DHT22;8977;50.902;4.314;2023-04-03T12:04:05;12.80;98.80
17715;DHT22;8977;50.902;4.314;2023-04-03T12:07:11;12.90;98.60
17715;DHT22;8977;50.902;4.314;2023-04-03T12:12:56;12.90;99.30
17715;DHT22;8977;50.902;4.314;2023-04-03T12:21:12;13.10;99.50
17715;DHT22;8977;50.902;4.314;2023-04-03T12:23:56;13.10;99.00
17715;DHT22;8977;50.902;4.314;2023-04-03T12:26:25;13.20;98.40
17715;DHT22;8977;50.902;4.314;2023-04-03T12:28:53;13.10;98.20
17715;DHT22;8977;50.902;4.314;2023-04-03T12:31:25;13.10;97.60
17715;DHT22;8977;50.902;4.314;2023-04-03T12:34:14;13.20;98.50
17715;DHT22;8977;50.902;4.314;2023-04-03T12:36:51;13.20;98.10
17715;DHT22;8977;50.902;4.314;2023-04-03T12:39:50;13.30;97.90
17715;DHT22;8977;50.902;4.314;2023-04-03T12:42:30;13.20;97.20
17715;DHT22;8977;50.902;4.314;2023-04-03T12:45:03;13.30;97.10
17715;DHT22;8977;50.902;4.314;2023-04-03T12:47:37;13.40;97.70
17715;DHT22;8977;50.902;4.314;2023-04-03T12:50:17;13.40;96.90
17715;DHT22;8977;50.902;4.314;2023-04-03T12:52:51;13.50;97.00
17715;DHT22;8977;50.902;4.314;2023-04-03T12:55:21;13.60;97.20
17715;DHT22;8977;50.902;4.314;2023-04-03T12:57:48;13.70;97.40
17715;DHT22;8977;50.902;4.314;2023-04-03T13:00:28;13.70;96.70
17715;DHT22;8977;50.902;4.314;2023-04-03T13:02:55;13.80;95.40
17715;DHT22;8977;50.902;4.314;2023-04-03T13:05:23;13.90;94.90
17715;DHT22;8977;50.902;4.314;2023-04-03T13:07:54;14.00;95.20
17715;DHT22;8977;50.902;4.314;2023-04-03T13:10:23;14.00;95.20
17715;DHT22;8977;50.902;4.314;2023-04-03T13:12:54;14.10;95.40
17715;DHT22;8977;50.902;4.314;2023-04-03T13:15:23;14.30;94.80
17715;DHT22;8977;50.902;4.314;2023-04-03T13:17:50;14.40;94.50
17715;DHT22;8977;50.902;4.314;2023-04-03T13:20:22;14.50;94.30
17715;DHT22;8977;50.902;4.314;2023-04-03T13:22:55;14.60;93.80
17715;DHT22;8977;50.902;4.314;2023-04-03T13:25:24;14.70;93.80
17715;DHT22;8977;50.902;4.314;2023-04-03T13:27:52;14.80;94.00
17715;DHT22;8977;50.902;4.314;2023-04-03T13:30:23;14.90;93.80
17715;DHT22;8977;50.902;4.314;2023-04-03T13:32:51;15.00;92.50
17715;DHT22;8977;50.902;4.314;2023-04-03T13:35:32;15.10;93.10
17715;DHT22;8977;50.902;4.314;2023-04-03T13:38:06;15.20;92.10
17715;DHT22;8977;50.902;4.314;2023-04-03T13:40:33;15.30;91.60
17715;DHT22;8977;50.902;4.314;2023-04-03T13:43:05;15.40;92.00
17715;DHT22;8977;50.902;4.314;2023-04-03T13:45:34;15.50;92.40
17715;DHT22;8977;50.902;4.314;2023-04-03T13:48:10;15.50;92.10
17715;DHT22;8977;50.902;4.314;2023-04-03T13:50:55;15.60;92.60
17715;DHT22;8977;50.902;4.314;2023-04-03T13:53:25;15.70;92.40
17715;DHT22;8977;50.902;4.314;2023-04-03T13:55:56;15.70;92.80
17715;DHT22;8977;50.902;4.314;2023-04-03T13:58:24;15.70;92.40
17715;DHT22;8977;50.902;4.314;2023-04-03T14:00:54;15.80;92.20
17715;DHT22;8977;50.902;4.314;2023-04-03T14:03:23;15.80;92.10
17715;DHT22;8977;50.902;4.314;2023-04-03T14:05:52;15.80;92.20
17715;DHT22;8977;50.902;4.314;2023-04-03T14:08:19;15.80;92.40
17715;DHT22;8977;50.902;4.314;2023-04-03T14:10:48;15.80;92.50
17715;DHT22;8977;50.902;4.314;2023-04-03T14:13:18;15.70;92.70
17715;DHT22;8977;50.902;4.314;2023-04-03T14:15:46;15.70;92.50
17715;DHT22;8977;50.902;4.314;2023-04-03T14:18:16;15.60;93.10
17715;DHT22;8977;50.902;4.314;2023-04-03T14:20:43;15.50;91.70
17715;DHT22;8977;50.902;4.314;2023-04-03T14:23:10;15.30;91.30
17715;DHT22;8977;50.902;4.314;2023-04-03T14:25:37;15.10;91.10
17715;DHT22;8977;50.902;4.314;2023-04-03T14:28:15;15.00;92.10
17715;DHT22;8977;50.902;4.314;2023-04-03T14:30:42;14.90;92.80
17715;DHT22;8977;50.902;4.314;2023-04-03T14:33:13;14.80;93.20
17715;DHT22;8977;50.902;4.314;2023-04-03T14:35:40;14.60;93.40
17715;DHT22;8977;50.902;4.314;2023-04-03T14:38:19;14.50;92.70
17715;DHT22;8977;50.902;4.314;2023-04-03T14:40:46;14.40;92.40
17715;DHT22;8977;50.902;4.314;2023-04-03T14:43:15;14.30;92.40
17715;DHT22;8977;50.902;4.314;2023-04-03T14:45:43;14.20;92.30
17715;DHT22;8977;50.902;4.314;2023-04-03T14:48:12;14.10;92.10
17715;DHT22;8977;50.902;4.314;2023-04-03T14:50:42;14.00;92.60
17715;DHT22;8977;50.902;4.314;2023-04-03T14:53:12;13.90;92.90
17715;DHT22;8977;50.902;4.314;2023-04-03T14:55:40;13.90;92.30
17715;DHT22;8977;50.902;4.314;2023-04-03T14:58:11;13.80;92.80
17715;DHT22;8977;50.902;4.314;2023-04-03T15:00:40;13.80;92.70
17715;DHT22;8977;50.902;4.314;2023-04-03T15:03:13;13.70;92.10
17715;DHT22;8977;50.902;4.314;2023-04-03T15:05:41;13.60;92.30
17715;DHT22;8977;50.902;4.314;2023-04-03T15:08:17;13.50;92.00
17715;DHT22;8977;50.902;4.314;2023-04-03T15:10:46;13.50;92.10
17715;DHT22;8977;50.902;4.314;2023-04-03T15:13:13;13.40;92.40
17715;DHT22;8977;50.902;4.314;2023-04-03T15:15:41;13.40;92.40
17715;DHT22;8977;50.902;4.314;2023-04-03T15:18:14;13.40;92.70
17715;DHT22;8977;50.902;4.314;2023-04-03T15:20:42;13.40;92.80
17715;DHT22;8977;50.902;4.314;2023-04-03T15:23:10;13.40;92.30
17715;DHT22;8977;50.902;4.314;2023-04-03T15:25:38;13.40;92.10
17715;DHT22;8977;50.902;4.314;2023-04-03T15:28:05;13.30;92.30
17715;DHT22;8977;50.902;4.314;2023-04-03T15:30:33;13.40;92.60
17715;DHT22;8977;50.902;4.314;2023-04-03T15:33:04;13.30;92.80
17715;DHT22;8977;50.902;4.314;2023-04-03T15:35:31;13.40;92.70
17715;DHT22;8977;50.902;4.314;2023-04-03T15:37:58;13.50;92.60
17715;DHT22;8977;50.902;4.314;2023-04-03T15:40:25;13.60;92.10
17715;DHT22;8977;50.902;4.314;2023-04-03T15:42:52;13.70;92.00
17715;DHT22;8977;50.902;4.314;2023-04-03T15:45:19;13.90;91.60
17715;DHT22;8977;50.902;4.314;2023-04-03T15:47:46;14.00;92.20
17715;DHT22;8977;50.902;4.314;2023-04-03T15:50:14;14.00;93.20
17715;DHT22;8977;50.902;4.314;2023-04-03T15:52:41;14.20;92.10
17715;DHT22;8977;50.902;4.314;2023-04-03T15:55:09;14.40;92.40
17715;DHT22;8977;50.902;4.314;2023-04-03T15:57:36;14.50;91.70
17715;DHT22;8977;50.902;4.314;2023-04-03T16:00:03;14.60;91.90
17715;DHT22;8977;50.902;4.314;2023-04-03T16:02:30;14.70;91.50
17715;DHT22;8977;50.902;4.314;2023-04-03T16:04:57;14.90;92.00
17715;DHT22;8977;50.902;4.314;2023-04-03T16:07:26;14.90;91.70
17715;DHT22;8977;50.902;4.314;2023-04-03T16:09:53;15.00;91.60
17715;DHT22;8977;50.902;4.314;2023-04-03T16:12:20;15.10;91.10
17715;DHT22;8977;50.902;4.314;2023-04-03T16:14:47;15.20;91.20
17715;DHT22;8977;50.902;4.314;2023-04-03T16:17:14;15.30;91.40
17715;DHT22;8977;50.902;4.314;2023-04-03T16:19:41;15.20;91.30
17715;DHT22;8977;50.902;4.314;2023-04-03T16:22:08;15.30;91.10